EKBI/BLL METAR and TAF weather

Enter ICAO airport designator
Station Type Date Time Source
EKBI METAR 2018/10/22 16:20 UTC NOAA

EKBI 221620Z 25009KT 9999 FEW030 08/04 Q1026


Station Type Date Time Source
EKBI Decoded METAR 2018/10/22 16:20 UTC NOAA

Billund Lufthavn, Denmark (EKBI) 55-44N 009-10E 79M
Oct 22, 2018 - 12:20 PM EDT / 2018.10.22 1620 UTC
Wind: from the WSW (250 degrees) at 10 MPH (9 KT):0
Visibility: greater than 7 mile(s):0
Sky conditions: mostly clear
Temperature: 46 F (8 C)
Dew Point: 39 F (4 C)
Relative Humidity: 75%
Pressure (altimeter): 30.30 in. Hg (1026 hPa)
ob: EKBI 221620Z 25009KT 9999 FEW030 08/04 Q1026
cycle: 16

Station Type Date Time Source
EKBI TAF 2018/10/22 12:09 UTC NOAA

TAF EKBI 221100Z 2212/2312 30015KT 9999 SCT025
TEMPO 2212/2216 30018G28KT SCT025TCU
BECMG 2221/2224 25020KT
TEMPO 2300/2312 26022G35KT 4000 RADZ BKN008


Example: see airport list